Time;durP1;ratioP1;P1;durP2;ratioP2;P2;SDS_P1;SDS_P2;PMS_P1;PMS_P2;Temp;Humidity;BMP_temperature;BMP_pressure;BME280_temperature;BME280_humidity;BME280_pressure;Samples;Min_cycle;Max_cycle;Signal;HPM_P1;HPM_P2
2023/04/27 00:01:18;;;;;;;17.83;10.90;;;;;;;;;;2024974;29;20044;-76
2023/04/27 00:02:39;;;;;;;20.63;11.57;;;;;;;;;;2020996;29;20413;-75
2023/04/27 00:04:02;;;;;;;18.58;10.25;;;;;;;;;;2029940;29;20036;-75
2023/04/27 00:05:23;;;;;;;16.90;10.82;;;;;;;;;;2023416;29;20447;-75
2023/04/27 00:06:44;;;;;;;17.85;11.00;;;;;;;;;;2029232;29;20040;-75
2023/04/27 00:08:05;;;;;;;18.10;11.25;;;;;;;;;;2023154;29;20033;-75
2023/04/27 00:09:26;;;;;;;17.92;11.07;;;;;;;;;;2029965;29;20044;-75
2023/04/27 00:10:47;;;;;;;18.15;11.75;;;;;;;;;;2027918;29;20036;-75
2023/04/27 00:12:08;;;;;;;18.02;10.85;;;;;;;;;;2032093;29;20388;-75
2023/04/27 00:13:29;;;;;;;18.67;10.85;;;;;;;;;;2031617;29;20036;-75
2023/04/27 00:14:50;;;;;;;15.18;10.60;;;;;;;;;;2022998;29;20044;-76
2023/04/27 00:16:11;;;;;;;17.92;10.70;;;;;;;;;;2016421;29;20374;-75
2023/04/27 00:17:32;;;;;;;15.50;10.43;;;;;;;;;;2029436;29;20039;-75
2023/04/27 00:18:53;;;;;;;15.88;11.13;;;;;;;;;;2027507;29;20020;-75
2023/04/27 00:20:14;;;;;;;17.55;10.20;;;;;;;;;;2023656;29;20133;-75
2023/04/27 00:21:34;;;;;;;21.10;10.80;;;;;;;;;;2021525;29;20468;-75
2023/04/27 00:22:55;;;;;;;16.25;10.60;;;;;;;;;;2029538;29;20123;-76
2023/04/27 00:24:16;;;;;;;15.55;10.65;;;;;;;;;;2023487;29;20048;-75
2023/04/27 00:25:37;;;;;;;18.58;11.57;;;;;;;;;;2021982;29;20033;-76
2023/04/27 00:26:58;;;;;;;22.25;11.95;;;;;;;;;;2028970;29;20111;-76
2023/04/27 00:28:19;;;;;;;17.13;11.63;;;;;;;;;;2024070;29;20056;-76
2023/04/27 00:29:41;;;;;;;16.40;11.52;;;;;;;;;;2027337;29;20135;-76
2023/04/27 00:31:03;;;;;;;19.75;10.68;;;;;;;;;;2032034;29;20036;-77
2023/04/27 00:32:24;;;;;;;16.40;10.82;;;;;;;;;;2023540;29;20063;-76
2023/04/27 00:33:45;;;;;;;20.55;11.07;;;;;;;;;;2029381;29;20051;-76
2023/04/27 00:35:06;;;;;;;14.75;11.40;;;;;;;;;;2023288;29;20028;-76
2023/04/27 00:36:27;;;;;;;17.05;10.93;;;;;;;;;;2020724;29;20039;-76
2023/04/27 00:37:48;;;;;;;17.42;11.00;;;;;;;;;;2029966;29;20330;-77
2023/04/27 00:39:09;;;;;;;17.40;11.35;;;;;;;;;;2031028;29;20051;-76
2023/04/27 00:40:29;;;;;;;16.73;11.63;;;;;;;;;;2023834;29;20069;-76
2023/04/27 00:41:50;;;;;;;19.33;11.50;;;;;;;;;;2023993;29;20060;-76
2023/04/27 00:43:11;;;;;;;25.38;11.60;;;;;;;;;;2028433;29;20043;-76
2023/04/27 00:44:32;;;;;;;17.50;10.40;;;;;;;;;;2031139;29;20044;-76
2023/04/27 00:45:53;;;;;;;15.70;10.95;;;;;;;;;;2024009;29;20028;-76
2023/04/27 00:47:15;;;;;;;15.88;10.75;;;;;;;;;;2024758;29;20036;-76
2023/04/27 00:48:36;;;;;;;18.08;11.40;;;;;;;;;;2021435;29;20032;-76
2023/04/27 00:49:57;;;;;;;15.88;10.07;;;;;;;;;;2028169;29;20245;-76
2023/04/27 00:51:18;;;;;;;18.27;11.93;;;;;;;;;;2023926;29;20334;-76
2023/04/27 00:52:40;;;;;;;18.33;11.38;;;;;;;;;;2029145;29;20032;-76
2023/04/27 00:54:01;;;;;;;21.80;11.68;;;;;;;;;;2032840;29;20036;-76
2023/04/27 00:55:24;;;;;;;17.02;11.38;;;;;;;;;;2032231;29;20120;-72
2023/04/27 00:56:49;;;;;;;16.00;10.30;;;;;;;;;;2030838;29;20048;-71
2023/04/27 00:58:10;;;;;;;17.48;11.70;;;;;;;;;;2023664;29;20033;-71
2023/04/27 00:59:31;;;;;;;18.10;10.75;;;;;;;;;;2023332;29;20112;-71
2023/04/27 01:00:52;;;;;;;17.65;12.07;;;;;;;;;;2028071;29;20050;-71
2023/04/27 01:02:13;;;;;;;15.63;11.35;;;;;;;;;;2023144;29;20056;-71
2023/04/27 01:03:34;;;;;;;14.57;10.77;;;;;;;;;;2028766;29;20113;-71
2023/04/27 01:04:55;;;;;;;17.60;11.18;;;;;;;;;;2023377;29;20346;-72
2023/04/27 01:06:16;;;;;;;17.63;10.93;;;;;;;;;;2028679;29;20053;-71
2023/04/27 01:07:37;;;;;;;17.67;11.45;;;;;;;;;;2022461;29;20028;-71
2023/04/27 01:08:58;;;;;;;15.98;11.60;;;;;;;;;;2030197;29;20055;-71
2023/04/27 01:10:19;;;;;;;17.15;11.57;;;;;;;;;;2023150;29;20427;-71
2023/04/27 01:11:40;;;;;;;18.08;10.75;;;;;;;;;;2026680;29;20044;-72
2023/04/27 01:13:01;;;;;;;18.70;10.57;;;;;;;;;;2024519;29;20033;-71
2023/04/27 01:14:21;;;;;;;17.45;11.15;;;;;;;;;;2020196;29;20509;-71
2023/04/27 01:15:42;;;;;;;18.67;11.77;;;;;;;;;;2028745;29;20040;-70
2023/04/27 01:17:03;;;;;;;17.40;11.27;;;;;;;;;;2023407;29;20029;-72
2023/04/27 01:18:24;;;;;;;21.25;11.45;;;;;;;;;;2023568;29;20037;-71
2023/04/27 01:19:46;;;;;;;17.35;11.70;;;;;;;;;;2023641;29;20041;-72
2023/04/27 01:21:06;;;;;;;22.17;12.18;;;;;;;;;;2015498;29;20033;-72
2023/04/27 01:22:27;;;;;;;19.50;10.98;;;;;;;;;;2021844;29;20029;-72
2023/04/27 01:23:48;;;;;;;20.38;11.30;;;;;;;;;;2023547;29;20036;-72
2023/04/27 01:25:09;;;;;;;23.95;11.90;;;;;;;;;;2023399;29;20032;-71
2023/04/27 01:26:30;;;;;;;22.08;12.40;;;;;;;;;;2024248;29;20441;-71
2023/04/27 01:27:52;;;;;;;16.92;11.50;;;;;;;;;;2023375;29;20044;-71
2023/04/27 01:29:13;;;;;;;17.40;11.80;;;;;;;;;;2024501;29;20476;-74
2023/04/27 01:30:34;;;;;;;23.38;12.25;;;;;;;;;;2031634;29;20040;-71
2023/04/27 01:31:55;;;;;;;20.02;11.57;;;;;;;;;;2031754;29;20079;-72
2023/04/27 01:33:15;;;;;;;22.38;11.95;;;;;;;;;;2029120;29;20044;-70
2023/04/27 01:34:36;;;;;;;18.75;11.20;;;;;;;;;;2023364;29;20507;-70
2023/04/27 01:35:57;;;;;;;21.30;11.88;;;;;;;;;;2027770;29;20029;-70
2023/04/27 01:37:18;;;;;;;20.65;11.52;;;;;;;;;;2023100;29;20052;-70
2023/04/27 01:38:39;;;;;;;17.02;11.25;;;;;;;;;;2028010;29;20340;-70
2023/04/27 01:40:00;;;;;;;16.70;11.63;;;;;;;;;;2032042;29;20091;-70
2023/04/27 01:41:22;;;;;;;22.58;12.32;;;;;;;;;;2030645;29;20032;-70
2023/04/27 01:42:43;;;;;;;20.85;12.02;;;;;;;;;;2030321;29;20477;-70
2023/04/27 01:44:05;;;;;;;18.55;11.82;;;;;;;;;;2022163;29;20056;-70
2023/04/27 01:45:26;;;;;;;19.35;11.50;;;;;;;;;;2013210;29;20029;-70
2023/04/27 01:46:47;;;;;;;20.15;12.80;;;;;;;;;;2022051;29;20136;-70
2023/04/27 01:48:08;;;;;;;20.65;12.00;;;;;;;;;;2015583;29;20496;-71
2023/04/27 01:49:28;;;;;;;21.90;12.82;;;;;;;;;;2019773;29;20112;-71
2023/04/27 01:50:49;;;;;;;22.00;12.45;;;;;;;;;;2016131;29;20108;-71
2023/04/27 01:52:10;;;;;;;19.77;12.20;;;;;;;;;;2021150;29;20536;-71
2023/04/27 01:53:31;;;;;;;21.02;12.65;;;;;;;;;;2030241;29;20043;-71
2023/04/27 01:54:52;;;;;;;20.35;12.52;;;;;;;;;;2031098;29;20047;-71
2023/04/27 01:56:13;;;;;;;17.67;11.90;;;;;;;;;;2023032;29;20037;-70
2023/04/27 01:57:34;;;;;;;19.27;12.02;;;;;;;;;;2029079;29;20444;-71
2023/04/27 01:58:55;;;;;;;19.58;11.60;;;;;;;;;;2031680;29;20036;-70
2023/04/27 02:00:16;;;;;;;26.00;13.60;;;;;;;;;;2030283;29;20036;-70
2023/04/27 02:01:37;;;;;;;17.55;11.80;;;;;;;;;;2023450;29;20108;-70
2023/04/27 02:02:59;;;;;;;22.77;12.20;;;;;;;;;;2015078;29;20394;-70
2023/04/27 02:04:20;;;;;;;19.85;12.32;;;;;;;;;;2020621;29;20437;-70
2023/04/27 02:05:41;;;;;;;23.42;12.75;;;;;;;;;;2023631;29;20047;-70
2023/04/27 02:07:02;;;;;;;25.27;12.95;;;;;;;;;;2015824;29;20041;-70
2023/04/27 02:08:23;;;;;;;22.85;12.63;;;;;;;;;;2006935;29;20060;-71
2023/04/27 02:09:44;;;;;;;21.85;12.10;;;;;;;;;;2007015;29;20370;-70
2023/04/27 02:11:05;;;;;;;22.35;12.25;;;;;;;;;;2020562;29;20036;-70
2023/04/27 02:12:25;;;;;;;19.63;12.50;;;;;;;;;;2015009;29;20116;-70
2023/04/27 02:13:47;;;;;;;22.17;12.82;;;;;;;;;;2012532;29;20089;-70
2023/04/27 02:15:08;;;;;;;18.88;12.25;;;;;;;;;;2016115;29;20040;-70
2023/04/27 02:16:29;;;;;;;21.85;12.25;;;;;;;;;;2010276;29;20578;-70
2023/04/27 02:17:50;;;;;;;19.20;12.55;;;;;;;;;;2016374;29;20104;-70
2023/04/27 02:19:11;;;;;;;21.77;12.13;;;;;;;;;;2020341;29;20468;-70
2023/04/27 02:20:32;;;;;;;22.00;11.63;;;;;;;;;;2022330;29;20040;-70
2023/04/27 02:21:53;;;;;;;26.10;13.00;;;;;;;;;;2022857;29;20024;-70
2023/04/27 02:23:14;;;;;;;20.17;12.65;;;;;;;;;;2015817;29;20029;-70
2023/04/27 02:24:35;;;;;;;20.38;13.15;;;;;;;;;;2020419;29;20392;-70
2023/04/27 02:25:56;;;;;;;17.35;12.82;;;;;;;;;;2016477;29;20123;-70
2023/04/27 02:27:17;;;;;;;20.77;12.35;;;;;;;;;;2011892;29;20492;-71
2023/04/27 02:28:38;;;;;;;17.92;12.73;;;;;;;;;;2021236;29;20039;-71
2023/04/27 02:30:02;;;;;;;22.02;11.93;;;;;;;;;;2016447;29;20038;-70
2023/04/27 02:31:25;;;;;;;20.65;12.77;;;;;;;;;;2023374;29;20374;-70
2023/04/27 02:32:46;;;;;;;21.55;12.55;;;;;;;;;;2022893;29;20059;-70
2023/04/27 02:34:07;;;;;;;31.13;13.30;;;;;;;;;;2022997;29;20037;-70
2023/04/27 02:35:27;;;;;;;20.85;12.07;;;;;;;;;;2015793;29;20029;-70
2023/04/27 02:36:48;;;;;;;23.38;12.27;;;;;;;;;;2007176;29;20482;-70
2023/04/27 02:38:09;;;;;;;21.38;12.60;;;;;;;;;;2012342;29;20033;-70
2023/04/27 02:39:30;;;;;;;24.67;13.50;;;;;;;;;;2006988;29;20040;-71
2023/04/27 02:40:54;;;;;;;18.83;11.80;;;;;;;;;;2014281;29;20041;-70
2023/04/27 02:42:15;;;;;;;22.08;12.80;;;;;;;;;;2015396;29;20529;-70
2023/04/27 02:43:36;;;;;;;20.75;11.82;;;;;;;;;;2015503;29;20033;-69
2023/04/27 02:44:57;;;;;;;21.55;12.68;;;;;;;;;;2020921;29;20262;-70
2023/04/27 02:46:18;;;;;;;21.17;12.30;;;;;;;;;;2021339;29;20032;-70
2023/04/27 02:47:39;;;;;;;28.17;13.55;;;;;;;;;;2022675;29;20041;-71
2023/04/27 02:49:00;;;;;;;21.73;11.95;;;;;;;;;;2022189;29;20045;-70
2023/04/27 02:50:21;;;;;;;23.98;13.38;;;;;;;;;;2022986;29;20052;-70
2023/04/27 02:51:41;;;;;;;21.65;12.85;;;;;;;;;;2015835;29;20041;-73
2023/04/27 02:53:02;;;;;;;21.13;11.88;;;;;;;;;;2012718;29;20041;-73
2023/04/27 02:54:24;;;;;;;20.67;11.90;;;;;;;;;;2020251;29;20048;-73
2023/04/27 02:55:48;;;;;;;21.17;13.20;;;;;;;;;;2015703;29;20059;-73
2023/04/27 02:57:09;;;;;;;18.08;13.52;;;;;;;;;;2015614;29;20633;-73
2023/04/27 02:58:30;;;;;;;20.88;12.20;;;;;;;;;;2020166;29;20048;-74
2023/04/27 02:59:51;;;;;;;21.37;12.57;;;;;;;;;;2022911;29;20493;-74
2023/04/27 03:01:13;;;;;;;18.85;13.77;;;;;;;;;;2015901;29;20563;-73
2023/04/27 03:02:34;;;;;;;;;;;;;;;;;;2027122;29;20128;-73
2023/04/27 03:03:55;;;;;;;18.10;11.77;;;;;;;;;;2031295;29;19911;-74
2023/04/27 03:05:16;;;;;;;23.10;14.00;;;;;;;;;;2024232;29;20032;-74
2023/04/27 03:06:37;;;;;;;21.05;12.60;;;;;;;;;;2020383;29;20033;-75
2023/04/27 03:07:58;;;;;;;22.27;12.13;;;;;;;;;;2030776;29;20440;-72
2023/04/27 03:09:18;;;;;;;21.48;12.15;;;;;;;;;;2032012;29;20036;-73
2023/04/27 03:10:39;;;;;;;22.00;12.93;;;;;;;;;;2023548;29;20032;-74
2023/04/27 03:12:01;;;;;;;22.52;12.95;;;;;;;;;;2030025;29;20028;-73
2023/04/27 03:13:22;;;;;;;23.88;13.15;;;;;;;;;;2033289;29;20112;-73
2023/04/27 03:14:43;;;;;;;28.75;12.98;;;;;;;;;;2031463;29;20059;-74
2023/04/27 03:16:04;;;;;;;20.80;13.25;;;;;;;;;;2023939;29;20032;-73
2023/04/27 03:17:25;;;;;;;19.85;12.57;;;;;;;;;;2023280;29;20429;-74
2023/04/27 03:18:46;;;;;;;29.70;13.93;;;;;;;;;;2032322;29;20028;-74
2023/04/27 03:20:08;;;;;;;21.75;13.65;;;;;;;;;;2031149;29;20494;-74
2023/04/27 03:21:30;;;;;;;;;;;;;;;;;;2025344;29;20131;-74
2023/04/27 03:22:51;;;;;;;18.48;12.55;;;;;;;;;;2022913;29;19911;-74
2023/04/27 03:24:12;;;;;;;19.58;12.00;;;;;;;;;;2029813;29;20099;-74
2023/04/27 03:25:33;;;;;;;25.23;12.65;;;;;;;;;;2031278;29;20059;-73
2023/04/27 03:26:54;;;;;;;19.50;12.18;;;;;;;;;;2022460;29;20124;-74
2023/04/27 03:28:15;;;;;;;19.55;12.93;;;;;;;;;;2030129;29;20047;-74
2023/04/27 03:29:36;;;;;;;21.63;13.77;;;;;;;;;;2018687;29;20036;-73
2023/04/27 03:30:57;;;;;;;20.98;12.60;;;;;;;;;;2022442;29;20029;-73
2023/04/27 03:32:18;;;;;;;19.88;12.18;;;;;;;;;;2025019;29;20059;-74
2023/04/27 03:33:39;;;;;;;25.73;12.55;;;;;;;;;;2024825;29;20465;-73
2023/04/27 03:35:01;;;;;;;23.87;12.57;;;;;;;;;;2024459;29;20063;-74
2023/04/27 03:36:22;;;;;;;24.67;13.63;;;;;;;;;;2030843;29;20236;-73
2023/04/27 03:37:44;;;;;;;22.60;13.68;;;;;;;;;;2031200;29;20032;-73
2023/04/27 03:39:05;;;;;;;20.35;12.90;;;;;;;;;;2031595;29;20368;-73
2023/04/27 03:40:26;;;;;;;19.48;12.52;;;;;;;;;;2032503;29;20044;-73
2023/04/27 03:41:47;;;;;;;24.65;12.85;;;;;;;;;;2031609;29;20028;-74
2023/04/27 03:43:08;;;;;;;24.02;13.40;;;;;;;;;;2032131;29;20539;-74
2023/04/27 03:44:33;;;;;;;22.50;13.27;;;;;;;;;;2024033;29;20029;-73
2023/04/27 03:45:53;;;;;;;27.60;13.95;;;;;;;;;;2017952;29;20033;-74
2023/04/27 03:47:14;;;;;;;22.67;14.23;;;;;;;;;;2021766;29;20480;-73
2023/04/27 03:48:35;;;;;;;21.25;12.68;;;;;;;;;;2024869;29;20068;-73
2023/04/27 03:49:56;;;;;;;26.00;14.18;;;;;;;;;;2027777;29;20566;-74
2023/04/27 03:51:18;;;;;;;21.88;13.60;;;;;;;;;;2032059;29;20047;-74
2023/04/27 03:52:38;;;;;;;29.23;13.93;;;;;;;;;;2023931;29;20492;-73
2023/04/27 03:53:59;;;;;;;20.63;12.65;;;;;;;;;;2029605;29;20063;-74
2023/04/27 03:55:20;;;;;;;27.90;13.52;;;;;;;;;;2031752;29;20047;-74
2023/04/27 03:56:41;;;;;;;23.23;13.25;;;;;;;;;;2024549;29;20028;-73
2023/04/27 03:58:02;;;;;;;25.15;13.10;;;;;;;;;;2028754;29;20369;-73
2023/04/27 03:59:23;;;;;;;21.85;13.73;;;;;;;;;;2024572;29;20040;-73
2023/04/27 04:00:44;;;;;;;20.30;11.95;;;;;;;;;;2020663;29;20036;-73
2023/04/27 04:02:05;;;;;;;22.95;14.05;;;;;;;;;;2029085;29;20036;-73
2023/04/27 04:03:26;;;;;;;28.15;14.82;;;;;;;;;;2032747;29;20036;-73
2023/04/27 04:04:47;;;;;;;22.67;13.70;;;;;;;;;;2033086;29;20044;-73
2023/04/27 04:06:07;;;;;;;27.63;13.73;;;;;;;;;;2025382;29;20033;-73
2023/04/27 04:07:28;;;;;;;26.27;13.40;;;;;;;;;;2020287;29;20052;-74
2023/04/27 04:08:49;;;;;;;28.20;13.25;;;;;;;;;;2024151;29;20461;-74
2023/04/27 04:10:10;;;;;;;25.23;13.65;;;;;;;;;;2029346;29;20441;-73
2023/04/27 04:11:31;;;;;;;29.35;14.07;;;;;;;;;;2032078;29;20028;-73
2023/04/27 04:12:52;;;;;;;21.05;12.63;;;;;;;;;;2031663;29;20040;-74
2023/04/27 04:14:13;;;;;;;27.58;14.38;;;;;;;;;;2023598;29;20370;-74
2023/04/27 04:15:34;;;;;;;24.27;13.18;;;;;;;;;;2029567;29;20036;-73
2023/04/27 04:16:55;;;;;;;23.95;13.02;;;;;;;;;;2032860;29;20033;-74
2023/04/27 04:18:16;;;;;;;25.10;12.95;;;;;;;;;;2023783;29;20072;-74
2023/04/27 04:19:36;;;;;;;21.13;13.63;;;;;;;;;;2022760;29;20060;-75
2023/04/27 04:20:57;;;;;;;25.60;13.18;;;;;;;;;;2024433;29;20084;-73
2023/04/27 04:22:18;;;;;;;28.30;13.90;;;;;;;;;;2024258;29;20028;-74
2023/04/27 04:23:39;;;;;;;23.83;13.82;;;;;;;;;;2017850;29;20037;-73
2023/04/27 04:25:01;;;;;;;25.17;14.35;;;;;;;;;;2014958;29;20113;-73
2023/04/27 04:26:22;;;;;;;31.98;14.27;;;;;;;;;;2023162;29;20044;-73
2023/04/27 04:27:43;;;;;;;24.20;13.73;;;;;;;;;;2024340;29;20041;-73
2023/04/27 04:29:04;;;;;;;20.95;13.55;;;;;;;;;;2017119;29;20029;-73
2023/04/27 04:30:25;;;;;;;27.48;13.68;;;;;;;;;;2021182;29;20462;-74
2023/04/27 04:31:46;;;;;;;24.75;12.82;;;;;;;;;;2031206;29;20047;-73
2023/04/27 04:33:07;;;;;;;22.90;13.55;;;;;;;;;;2024078;29;20040;-73
2023/04/27 04:34:28;;;;;;;23.38;13.43;;;;;;;;;;2023023;29;20044;-73
2023/04/27 04:35:49;;;;;;;21.98;13.65;;;;;;;;;;2023945;29;20526;-73
2023/04/27 04:37:10;;;;;;;18.73;12.80;;;;;;;;;;2022461;29;20040;-74
2023/04/27 04:38:32;;;;;;;23.35;13.60;;;;;;;;;;2028174;29;20465;-74
2023/04/27 04:39:52;;;;;;;21.73;13.25;;;;;;;;;;2024802;29;20381;-73
2023/04/27 04:41:13;;;;;;;20.60;11.93;;;;;;;;;;2028364;29;20036;-73
2023/04/27 04:42:35;;;;;;;22.90;13.75;;;;;;;;;;2025225;29;20040;-74
2023/04/27 04:43:56;;;;;;;21.80;13.52;;;;;;;;;;2024619;29;20036;-74
2023/04/27 04:45:17;;;;;;;21.42;13.85;;;;;;;;;;2017183;29;20044;-74
2023/04/27 04:46:38;;;;;;;23.67;14.02;;;;;;;;;;2020646;29;20072;-74
2023/04/27 04:48:03;;;;;;;24.48;13.50;;;;;;;;;;2028946;29;20042;-74
2023/04/27 04:49:24;;;;;;;23.52;13.52;;;;;;;;;;2031730;29;20476;-73
2023/04/27 04:50:45;;;;;;;24.25;13.07;;;;;;;;;;2032128;29;20512;-74
2023/04/27 04:52:06;;;;;;;19.67;12.23;;;;;;;;;;2032315;29;20036;-73
2023/04/27 04:53:27;;;;;;;21.52;13.23;;;;;;;;;;2023682;29;20040;-73
2023/04/27 04:54:50;;;;;;;23.75;14.05;;;;;;;;;;2023549;29;20033;-74
2023/04/27 04:56:12;;;;;;;25.30;12.63;;;;;;;;;;2030155;29;20435;-74
2023/04/27 04:57:33;;;;;;;23.05;13.30;;;;;;;;;;2025140;29;20032;-74
2023/04/27 04:58:53;;;;;;;23.67;14.88;;;;;;;;;;2024398;29;20028;-74
2023/04/27 05:00:14;;;;;;;22.55;13.25;;;;;;;;;;2024726;29;20042;-74
2023/04/27 05:01:35;;;;;;;24.00;14.07;;;;;;;;;;2024743;29;20033;-74
2023/04/27 05:02:56;;;;;;;23.15;13.32;;;;;;;;;;2009141;29;20072;-74
2023/04/27 05:04:17;;;;;;;23.85;13.23;;;;;;;;;;2008293;29;20025;-74
2023/04/27 05:05:38;;;;;;;32.90;14.60;;;;;;;;;;2014658;29;20037;-73
2023/04/27 05:06:59;;;;;;;20.60;13.20;;;;;;;;;;2008521;29;20041;-73
2023/04/27 05:08:20;;;;;;;22.40;14.13;;;;;;;;;;2009517;29;20154;-74
2023/04/27 05:09:41;;;;;;;25.50;15.18;;;;;;;;;;2014684;29;20041;-74
2023/04/27 05:11:01;;;;;;;25.70;14.82;;;;;;;;;;2016804;29;20037;-74
2023/04/27 05:12:22;;;;;;;24.40;13.52;;;;;;;;;;2016482;29;20056;-74
2023/04/27 05:13:43;;;;;;;28.40;15.32;;;;;;;;;;2017145;29;20041;-74
2023/04/27 05:15:04;;;;;;;26.25;14.65;;;;;;;;;;2008468;29;20038;-73
2023/04/27 05:16:25;;;;;;;27.90;14.23;;;;;;;;;;2007776;29;20038;-74
2023/04/27 05:17:46;;;;;;;24.27;14.35;;;;;;;;;;2015292;29;20036;-73
2023/04/27 05:19:07;;;;;;;23.05;14.65;;;;;;;;;;2021447;29;20591;-73
2023/04/27 05:20:28;;;;;;;24.55;14.18;;;;;;;;;;2023182;29;20040;-73
2023/04/27 05:21:49;;;;;;;22.75;14.52;;;;;;;;;;2024116;29;20032;-74
2023/04/27 05:23:10;;;;;;;19.50;13.88;;;;;;;;;;2023739;29;20441;-74
2023/04/27 05:24:31;;;;;;;24.98;14.25;;;;;;;;;;2015887;29;20037;-74
2023/04/27 05:25:52;;;;;;;20.50;13.65;;;;;;;;;;2013699;29;20032;-74
2023/04/27 05:27:16;;;;;;;25.17;13.73;;;;;;;;;;2021214;29;20417;-73
2023/04/27 05:28:37;;;;;;;23.95;13.73;;;;;;;;;;2023704;29;20445;-74
2023/04/27 05:29:58;;;;;;;20.30;13.10;;;;;;;;;;2009401;29;20037;-74
2023/04/27 05:31:19;;;;;;;25.35;13.27;;;;;;;;;;2013285;29;20045;-74
2023/04/27 05:32:40;;;;;;;27.83;14.25;;;;;;;;;;2006906;29;20037;-73
2023/04/27 05:34:01;;;;;;;24.83;14.80;;;;;;;;;;2013992;29;20037;-73
2023/04/27 05:35:21;;;;;;;23.08;14.30;;;;;;;;;;2016206;29;20033;-73
2023/04/27 05:36:42;;;;;;;25.55;13.63;;;;;;;;;;2015662;29;20041;-73
2023/04/27 05:38:03;;;;;;;29.67;15.00;;;;;;;;;;2015864;29;20041;-73
2023/04/27 05:39:25;;;;;;;22.35;13.23;;;;;;;;;;2021268;29;20032;-74
2023/04/27 05:40:45;;;;;;;27.55;14.23;;;;;;;;;;2023079;29;20412;-73
2023/04/27 05:42:06;;;;;;;22.95;14.27;;;;;;;;;;2016203;29;20040;-73
2023/04/27 05:43:27;;;;;;;33.08;15.52;;;;;;;;;;2020604;29;20056;-74
2023/04/27 05:44:48;;;;;;;29.27;13.32;;;;;;;;;;2016900;29;20338;-73
2023/04/27 05:46:12;;;;;;;24.45;13.55;;;;;;;;;;2014865;29;20110;-74
2023/04/27 05:47:33;;;;;;;27.83;14.80;;;;;;;;;;2008297;29;20060;-73
2023/04/27 05:48:54;;;;;;;26.52;13.27;;;;;;;;;;2013923;29;20045;-74
2023/04/27 05:50:15;;;;;;;20.77;13.02;;;;;;;;;;2015896;29;20024;-74
2023/04/27 05:51:37;;;;;;;23.48;13.30;;;;;;;;;;2015869;29;20485;-74
2023/04/27 05:52:59;;;;;;;26.85;13.52;;;;;;;;;;2011494;29;20033;-73
2023/04/27 05:54:20;;;;;;;20.05;12.45;;;;;;;;;;2020834;29;20453;-73
2023/04/27 05:55:41;;;;;;;30.52;15.23;;;;;;;;;;2024227;29;20045;-73
2023/04/27 05:57:02;;;;;;;26.13;13.50;;;;;;;;;;2024412;29;20040;-74
2023/04/27 05:58:23;;;;;;;30.05;14.73;;;;;;;;;;2019173;29;20362;-73
2023/04/27 05:59:44;;;;;;;22.25;12.20;;;;;;;;;;2015718;29;20040;-74
2023/04/27 06:01:06;;;;;;;21.90;13.90;;;;;;;;;;2015830;29;20049;-73
2023/04/27 06:02:26;;;;;;;26.60;15.53;;;;;;;;;;2012478;29;20409;-74
2023/04/27 06:03:47;;;;;;;27.17;13.07;;;;;;;;;;2022004;29;20043;-73
2023/04/27 06:05:08;;;;;;;22.55;14.50;;;;;;;;;;2024381;29;20029;-74
2023/04/27 06:06:30;;;;;;;25.80;14.00;;;;;;;;;;2024607;29;20025;-74
2023/04/27 06:07:51;;;;;;;27.33;14.38;;;;;;;;;;2015230;29;20040;-73
2023/04/27 06:09:13;;;;;;;25.15;12.95;;;;;;;;;;2021489;29;20067;-74
2023/04/27 06:10:34;;;;;;;25.90;13.70;;;;;;;;;;2023620;29;20353;-73
2023/04/27 06:11:57;;;;;;;28.63;13.40;;;;;;;;;;2024311;29;20029;-73
2023/04/27 06:13:18;;;;;;;22.13;12.93;;;;;;;;;;2023024;29;20123;-74
2023/04/27 06:14:39;;;;;;;23.05;13.30;;;;;;;;;;2019220;29;20048;-73
2023/04/27 06:16:00;;;;;;;20.45;12.27;;;;;;;;;;2016502;29;20045;-73
2023/04/27 06:17:21;;;;;;;22.55;12.57;;;;;;;;;;2015024;29;20037;-73
2023/04/27 06:18:42;;;;;;;20.02;10.95;;;;;;;;;;2017845;29;20029;-74
2023/04/27 06:20:06;;;;;;;24.08;12.65;;;;;;;;;;2014892;29;20087;-73
2023/04/27 06:21:27;;;;;;;24.55;12.30;;;;;;;;;;2021190;29;20048;-74
2023/04/27 06:22:48;;;;;;;22.13;12.15;;;;;;;;;;2022705;29;20456;-74
2023/04/27 06:24:09;;;;;;;19.10;11.65;;;;;;;;;;2023609;29;20037;-73
2023/04/27 06:25:30;;;;;;;20.63;11.45;;;;;;;;;;2022743;29;20048;-73
2023/04/27 06:26:51;;;;;;;24.67;12.38;;;;;;;;;;2023586;29;20040;-73
2023/04/27 06:28:12;;;;;;;18.25;10.88;;;;;;;;;;2022421;29;20378;-73
2023/04/27 06:29:32;;;;;;;21.15;11.05;;;;;;;;;;2023831;29;20055;-74
2023/04/27 06:30:54;;;;;;;18.55;10.73;;;;;;;;;;2023479;29;20108;-74
2023/04/27 06:32:14;;;;;;;21.08;11.25;;;;;;;;;;2015866;29;20048;-74
2023/04/27 06:33:35;;;;;;;22.80;12.45;;;;;;;;;;2013001;29;20041;-74
2023/04/27 06:34:56;;;;;;;21.58;11.13;;;;;;;;;;2014709;29;20033;-74
2023/04/27 06:36:18;;;;;;;20.70;11.05;;;;;;;;;;2014327;29;20364;-74
2023/04/27 06:37:39;;;;;;;21.45;10.85;;;;;;;;;;2021515;29;20033;-74
2023/04/27 06:39:00;;;;;;;22.65;11.35;;;;;;;;;;2023958;29;20096;-74
2023/04/27 06:40:21;;;;;;;17.70;11.02;;;;;;;;;;2015976;29;20033;-73
2023/04/27 06:41:42;;;;;;;18.27;10.65;;;;;;;;;;2020022;29;20059;-74
2023/04/27 06:43:03;;;;;;;21.00;9.82;;;;;;;;;;2026336;29;20024;-74
2023/04/27 06:44:24;;;;;;;19.73;10.20;;;;;;;;;;2016049;29;20479;-73
2023/04/27 06:45:45;;;;;;;18.38;9.55;;;;;;;;;;2022333;29;20104;-73
2023/04/27 06:47:06;;;;;;;19.88;10.02;;;;;;;;;;2024672;29;20039;-73
2023/04/27 06:48:27;;;;;;;23.05;9.68;;;;;;;;;;2025241;29;20055;-74
2023/04/27 06:49:48;;;;;;;17.73;9.23;;;;;;;;;;2010392;29;20037;-74
2023/04/27 06:51:09;;;;;;;17.42;9.27;;;;;;;;;;2015520;29;20037;-73
2023/04/27 06:52:33;;;;;;;18.98;10.38;;;;;;;;;;2016822;29;20048;-74
2023/04/27 06:53:56;;;;;;;14.77;8.82;;;;;;;;;;2018262;29;20045;-74
2023/04/27 06:55:16;;;;;;;17.27;8.70;;;;;;;;;;2017078;29;20420;-74
2023/04/27 06:56:38;;;;;;;12.98;8.02;;;;;;;;;;2010621;29;20041;-73
2023/04/27 06:57:58;;;;;;;17.38;9.05;;;;;;;;;;2014360;29;20509;-74
2023/04/27 06:59:19;;;;;;;13.57;7.32;;;;;;;;;;2017963;29;20056;-74
2023/04/27 07:00:40;;;;;;;21.00;8.52;;;;;;;;;;2016152;29;20029;-73
2023/04/27 07:02:02;;;;;;;15.57;8.60;;;;;;;;;;2011105;29;20053;-75
2023/04/27 07:03:22;;;;;;;15.82;7.80;;;;;;;;;;2023232;29;20041;-74
2023/04/27 07:04:43;;;;;;;16.65;8.50;;;;;;;;;;2016139;29;20361;-73
2023/04/27 07:06:04;;;;;;;13.23;7.43;;;;;;;;;;2018065;29;20045;-74
2023/04/27 07:07:25;;;;;;;16.17;7.82;;;;;;;;;;2025341;29;20184;-74
2023/04/27 07:08:46;;;;;;;13.50;7.70;;;;;;;;;;2032710;29;20032;-74
2023/04/27 07:10:07;;;;;;;13.13;7.00;;;;;;;;;;2033409;29;20420;-74
2023/04/27 07:11:28;;;;;;;14.23;7.30;;;;;;;;;;2019699;29;20064;-74
2023/04/27 07:12:49;;;;;;;13.48;7.70;;;;;;;;;;2030959;29;20440;-74
2023/04/27 07:14:10;;;;;;;13.05;7.10;;;;;;;;;;2031586;29;20095;-74
2023/04/27 07:15:31;;;;;;;16.75;8.55;;;;;;;;;;2032545;29;20083;-75
2023/04/27 07:16:52;;;;;;;13.35;8.20;;;;;;;;;;2030852;29;20145;-74
2023/04/27 07:18:13;;;;;;;18.65;8.57;;;;;;;;;;2025100;29;20096;-74
2023/04/27 07:19:35;;;;;;;17.38;8.10;;;;;;;;;;2015613;29;20037;-74
2023/04/27 07:20:56;;;;;;;14.65;8.10;;;;;;;;;;2022237;29;20492;-74
2023/04/27 07:22:18;;;;;;;13.30;7.65;;;;;;;;;;2017855;29;20041;-74
2023/04/27 07:23:42;;;;;;;13.82;7.40;;;;;;;;;;2022844;29;20033;-75
2023/04/27 07:25:04;;;;;;;18.77;8.27;;;;;;;;;;2025272;29;20025;-74
2023/04/27 07:26:25;;;;;;;14.27;8.05;;;;;;;;;;2025040;29;20052;-74
2023/04/27 07:27:46;;;;;;;13.07;6.93;;;;;;;;;;2025469;29;20096;-74
2023/04/27 07:29:08;;;;;;;14.20;7.57;;;;;;;;;;2025447;29;20036;-74
2023/04/27 07:30:29;;;;;;;13.65;7.88;;;;;;;;;;2033367;29;20028;-74
2023/04/27 07:31:51;;;;;;;14.02;8.32;;;;;;;;;;2031864;29;20356;-74
2023/04/27 07:33:12;;;;;;;14.48;8.18;;;;;;;;;;2032855;29;20411;-74
2023/04/27 07:34:33;;;;;;;17.73;8.40;;;;;;;;;;2032878;29;20249;-74
2023/04/27 07:35:55;;;;;;;17.88;9.02;;;;;;;;;;2019158;29;20028;-73
2023/04/27 07:37:16;;;;;;;15.88;8.82;;;;;;;;;;2023685;29;20033;-73
2023/04/27 07:38:37;;;;;;;13.45;7.53;;;;;;;;;;2030135;29;20206;-74
2023/04/27 07:39:58;;;;;;;15.07;8.35;;;;;;;;;;2024778;29;20393;-74
2023/04/27 07:41:20;;;;;;;13.82;8.07;;;;;;;;;;2030032;29;20040;-74
2023/04/27 07:42:41;;;;;;;16.40;8.98;;;;;;;;;;2032655;29;20449;-74
2023/04/27 07:44:02;;;;;;;16.50;8.15;;;;;;;;;;2030549;29;20036;-75
2023/04/27 07:45:30;;;;;;;16.27;8.57;;;;;;;;;;2019562;29;20032;-74
2023/04/27 07:46:53;;;;;;;18.75;8.70;;;;;;;;;;2030066;29;20036;-74
2023/04/27 07:48:14;;;;;;;16.33;8.85;;;;;;;;;;2025285;29;20047;-74
2023/04/27 07:49:36;;;;;;;15.00;8.80;;;;;;;;;;2025117;29;20519;-74
2023/04/27 07:50:57;;;;;;;16.42;8.75;;;;;;;;;;2024706;29;20032;-74
2023/04/27 07:52:17;;;;;;;14.15;8.82;;;;;;;;;;2025047;29;20404;-73
2023/04/27 07:53:38;;;;;;;15.80;8.65;;;;;;;;;;2023968;29;20133;-74